createdAt,value
2018-07-28T00:01:38.338Z,3.92
2018-07-28T00:04:09.146Z,4.35
2018-07-28T00:06:39.533Z,4.17
2018-07-28T00:09:12.043Z,4.03
2018-07-28T00:12:30.616Z,3.50
2018-07-28T00:15:01.092Z,4.00
2018-07-28T00:17:31.642Z,3.85
2018-07-28T00:20:02.094Z,3.80
2018-07-28T00:22:32.640Z,3.85
2018-07-28T00:25:03.073Z,4.40
2018-07-28T00:27:34.070Z,3.83
2018-07-28T00:30:05.116Z,3.80
2018-07-28T00:32:35.512Z,3.40
2018-07-28T00:35:06.044Z,3.37
2018-07-28T00:37:36.778Z,2.95
2018-07-28T00:40:08.101Z,3.30
2018-07-28T00:42:38.696Z,3.30
2018-07-28T00:45:08.802Z,3.10
2018-07-28T00:47:39.218Z,3.25
2018-07-28T00:50:10.501Z,3.30
2018-07-28T00:52:40.930Z,3.50
2018-07-28T00:55:11.420Z,3.02
2018-07-28T00:57:41.811Z,3.35
2018-07-28T01:00:12.564Z,3.40
2018-07-28T01:03:30.960Z,3.40
2018-07-28T01:06:01.352Z,3.05
2018-07-28T01:08:31.777Z,3.20
2018-07-28T01:11:02.129Z,3.27
2018-07-28T01:13:32.925Z,3.30
2018-07-28T01:16:03.520Z,3.33
2018-07-28T01:18:34.250Z,3.30
2018-07-28T01:21:04.694Z,3.67
2018-07-28T01:23:35.447Z,3.75
2018-07-28T01:26:06.206Z,3.33
2018-07-28T01:35:48.769Z,2.90
2018-07-28T01:38:19.205Z,3.15
2018-07-28T01:40:49.641Z,3.17
2018-07-28T01:43:20.065Z,3.30
2018-07-28T01:45:50.454Z,3.30
2018-07-28T01:56:29.417Z,3.22
2018-07-28T01:59:00.104Z,3.20
2018-07-28T02:01:30.712Z,3.35
2018-07-28T02:04:01.472Z,3.00
2018-07-28T02:06:32.521Z,3.10
2018-07-28T02:09:03.140Z,3.45
2018-07-28T02:11:33.618Z,3.20
2018-07-28T02:14:04.060Z,3.02
2018-07-28T02:16:34.557Z,3.37
2018-07-28T02:19:05.335Z,3.22
2018-07-28T02:21:35.815Z,3.35
2018-07-28T02:24:06.286Z,3.20
2018-07-28T02:26:38.727Z,3.25
2018-07-28T02:29:10.717Z,3.35
2018-07-28T02:31:41.552Z,3.40
2018-07-28T02:34:11.960Z,3.50
2018-07-28T02:36:42.407Z,3.35
2018-07-28T02:39:12.932Z,3.85
2018-07-28T02:41:43.480Z,3.08
2018-07-28T02:44:13.881Z,3.80
2018-07-28T02:46:44.280Z,3.50
2018-07-28T02:49:14.678Z,3.52
2018-07-28T02:51:45.116Z,3.40
2018-07-28T02:54:15.632Z,3.85
2018-07-28T02:56:46.052Z,3.27
2018-07-28T02:59:16.462Z,3.65
2018-07-28T03:01:46.926Z,3.30
2018-07-28T03:04:17.370Z,3.50
2018-07-28T03:06:47.766Z,3.40
2018-07-28T03:09:18.562Z,3.30
2018-07-28T03:11:48.980Z,3.20
2018-07-28T03:14:19.692Z,3.40
2018-07-28T03:16:49.893Z,3.90
2018-07-28T03:19:20.244Z,3.42
2018-07-28T03:21:50.698Z,3.60
2018-07-28T03:24:21.034Z,3.10
2018-07-28T03:26:51.412Z,3.45
2018-07-28T03:29:22.154Z,3.10
2018-07-28T03:31:52.606Z,3.05
2018-07-28T03:34:22.992Z,3.30
2018-07-28T03:36:53.400Z,3.60
2018-07-28T03:39:23.838Z,3.50
2018-07-28T03:41:54.198Z,3.30
2018-07-28T03:44:24.620Z,3.47
2018-07-28T03:46:55.024Z,3.50
2018-07-28T03:49:25.424Z,3.30
2018-07-28T03:51:55.976Z,3.30
2018-07-28T03:54:26.374Z,3.80
2018-07-28T03:56:56.757Z,3.60
2018-07-28T03:59:27.106Z,3.52
2018-07-28T04:01:58.393Z,3.70
2018-07-28T04:04:28.808Z,3.40
2018-07-28T04:06:59.180Z,3.50
2018-07-28T04:09:29.558Z,3.70
2018-07-28T04:11:59.994Z,3.37
2018-07-28T04:14:30.612Z,3.50
2018-07-28T04:17:01.208Z,3.60
2018-07-28T04:19:31.542Z,3.50
2018-07-28T04:22:01.958Z,3.67
2018-07-28T04:24:32.300Z,3.50
2018-07-28T04:27:02.747Z,3.65
2018-07-28T04:29:33.277Z,3.67
2018-07-28T04:32:04.530Z,3.50
2018-07-28T04:34:35.064Z,3.67
2018-07-28T04:37:05.520Z,3.60
2018-07-28T04:39:36.094Z,3.60
2018-07-28T04:42:06.766Z,3.70
2018-07-28T04:44:37.232Z,3.95
2018-07-28T04:50:44.236Z,4.22
2018-07-28T04:53:14.721Z,3.92
2018-07-28T04:55:45.129Z,3.83
2018-07-28T04:58:15.474Z,3.55
2018-07-28T05:00:45.997Z,3.87
2018-07-28T05:06:52.291Z,3.60
2018-07-28T05:09:22.638Z,3.75
2018-07-28T05:11:52.975Z,3.42
2018-07-28T05:14:23.974Z,3.83
2018-07-28T05:16:54.362Z,3.65
2018-07-28T05:19:24.784Z,4.67
2018-07-28T05:21:55.136Z,3.55
2018-07-28T05:24:25.514Z,4.00
2018-07-28T05:26:55.870Z,3.80
2018-07-28T05:29:26.276Z,4.08
2018-07-28T05:31:56.378Z,4.40
2018-07-28T05:34:26.501Z,3.70
2018-07-28T05:36:57.135Z,4.23
2018-07-28T05:39:27.365Z,3.80
2018-07-28T05:41:57.802Z,3.80
2018-07-28T05:44:27.909Z,4.43
2018-07-28T05:46:58.044Z,4.37
2018-07-28T05:49:28.100Z,4.20
2018-07-28T05:51:58.217Z,5.30
2018-07-28T05:54:28.469Z,4.30
2018-07-28T05:56:58.554Z,3.70
2018-07-28T05:59:28.982Z,3.87
2018-07-28T06:01:59.883Z,3.90
2018-07-28T06:04:29.940Z,4.20
2018-07-28T06:07:01.695Z,3.50
2018-07-28T06:09:31.829Z,4.07
2018-07-28T06:12:01.947Z,3.90
2018-07-28T06:14:32.453Z,4.13
2018-07-28T06:17:02.857Z,4.15
2018-07-28T06:19:33.295Z,4.12
2018-07-28T06:22:03.681Z,4.00
2018-07-28T06:24:34.596Z,4.22
2018-07-28T06:27:05.351Z,4.25
2018-07-28T06:29:35.776Z,4.55
2018-07-28T06:35:42.790Z,4.37
2018-07-28T06:38:13.249Z,4.10
2018-07-28T06:40:43.658Z,4.17
2018-07-28T06:43:14.027Z,4.20
2018-07-28T06:45:44.507Z,4.83
2018-07-28T06:48:15.020Z,4.62
2018-07-28T06:50:45.434Z,3.95
2018-07-28T06:53:15.802Z,4.90
2018-07-28T06:55:46.160Z,4.15
2018-07-28T06:58:16.667Z,4.22
2018-07-28T07:00:47.100Z,4.20
2018-07-28T07:03:17.567Z,4.20
2018-07-28T07:05:48.031Z,4.28
2018-07-28T07:08:18.726Z,4.22
2018-07-28T07:10:49.243Z,4.22
2018-07-28T07:13:19.690Z,4.53
2018-07-28T07:15:50.025Z,4.03
2018-07-28T07:18:20.415Z,4.33
2018-07-28T07:20:50.919Z,4.67
2018-07-28T07:23:21.649Z,4.40
2018-07-28T07:25:52.289Z,4.67
2018-07-28T07:28:22.646Z,4.70
2018-07-28T07:30:53.065Z,5.35
2018-07-28T07:33:24.097Z,4.40
2018-07-28T07:35:55.079Z,4.55
2018-07-28T07:38:25.553Z,3.92
2018-07-28T07:40:56.081Z,6.05
2018-07-28T07:43:26.515Z,4.92
2018-07-28T07:45:57.046Z,4.90
2018-07-28T07:48:27.581Z,5.00
2018-07-28T07:50:58.137Z,5.70
2018-07-28T07:53:28.625Z,6.08
2018-07-28T07:55:59.073Z,5.55
2018-07-28T07:58:29.509Z,6.12
2018-07-28T08:01:00.399Z,6.12
2018-07-28T08:03:30.959Z,6.08
2018-07-28T08:06:01.577Z,5.40
2018-07-28T08:08:32.079Z,5.35
2018-07-28T08:11:02.656Z,5.00
2018-07-28T08:13:33.118Z,4.72
2018-07-28T08:16:03.781Z,5.58
2018-07-28T08:18:34.255Z,4.28
2018-07-28T08:21:05.533Z,4.75
2018-07-28T08:23:36.297Z,4.60
2018-07-28T08:26:07.773Z,4.67
2018-07-28T08:28:38.808Z,4.35
2018-07-28T08:31:08.853Z,4.47
2018-07-28T08:33:39.855Z,5.03
2018-07-28T08:36:10.394Z,4.47
2018-07-28T08:38:40.858Z,6.62
2018-07-28T08:41:11.443Z,5.37
2018-07-28T08:43:41.884Z,4.87
2018-07-28T08:46:12.944Z,4.70
2018-07-28T08:48:44.633Z,4.70
2018-07-28T08:51:16.142Z,4.90
2018-07-28T08:53:46.654Z,4.65
2018-07-28T08:56:17.996Z,4.92
2018-07-28T08:58:48.626Z,5.00
2018-07-28T09:01:19.648Z,5.08
2018-07-28T09:03:50.086Z,5.35
2018-07-28T09:06:21.758Z,5.15
2018-07-28T09:08:52.379Z,4.70
2018-07-28T09:11:23.307Z,4.83
2018-07-28T09:13:54.670Z,5.95
2018-07-28T09:16:25.772Z,6.10
2018-07-28T09:18:59.580Z,5.58
2018-07-28T09:21:30.623Z,5.67
2018-07-28T09:24:01.466Z,5.22
2018-07-28T09:26:32.573Z,5.25
2018-07-28T09:29:03.084Z,5.90
2018-07-28T09:31:33.602Z,5.25
2018-07-28T09:34:04.824Z,5.35
2018-07-28T09:37:29.793Z,5.72
2018-07-28T09:40:00.228Z,5.42
2018-07-28T09:42:31.521Z,5.60
2018-07-28T09:45:02.308Z,5.03
2018-07-28T09:47:33.649Z,4.87
2018-07-28T09:50:04.740Z,4.92
2018-07-28T09:52:36.126Z,4.85
2018-07-28T09:55:06.369Z,4.78
2018-07-28T09:57:37.948Z,4.87
2018-07-28T10:00:08.882Z,5.03
2018-07-28T10:02:39.777Z,4.75
2018-07-28T10:05:10.284Z,4.47
2018-07-28T10:07:40.952Z,4.55
2018-07-28T10:10:11.446Z,4.75
2018-07-28T10:12:42.999Z,4.10
2018-07-28T10:18:50.700Z,4.08
2018-07-28T10:21:21.208Z,4.20
2018-07-28T10:23:51.776Z,4.60
2018-07-28T10:26:22.293Z,4.72
2018-07-28T10:28:52.788Z,4.25
2018-07-28T10:31:23.348Z,4.40
2018-07-28T10:33:55.108Z,4.35
2018-07-28T10:36:25.857Z,4.80
2018-07-28T10:38:56.512Z,6.92
2018-07-28T10:41:27.035Z,4.70
2018-07-28T10:43:57.578Z,4.87
2018-07-28T10:46:29.478Z,4.67
2018-07-28T10:48:59.928Z,4.83
2018-07-28T10:51:30.510Z,4.95
2018-07-28T10:54:01.844Z,4.90
2018-07-28T10:56:32.740Z,4.50
2018-07-28T10:59:04.000Z,4.70
2018-07-28T11:01:34.466Z,4.55
2018-07-28T11:04:05.664Z,4.60
2018-07-28T11:06:37.370Z,4.83
2018-07-28T11:09:10.248Z,4.83
2018-07-28T11:11:41.006Z,4.60
2018-07-28T11:14:11.588Z,5.17
2018-07-28T11:16:42.156Z,4.83
2018-07-28T11:19:12.658Z,4.83
2018-07-28T11:21:43.178Z,4.42
2018-07-28T11:24:14.289Z,4.58
2018-07-28T11:26:44.830Z,5.28
2018-07-28T11:29:15.314Z,4.65
2018-07-28T11:32:02.630Z,5.62
2018-07-28T11:34:49.938Z,4.67
2018-07-28T11:37:34.484Z,4.85
2018-07-28T11:40:21.632Z,4.67
2018-07-28T11:43:08.698Z,5.03
2018-07-28T11:45:39.409Z,4.95
2018-07-28T11:48:09.927Z,5.05
2018-07-28T11:50:40.416Z,4.70
2018-07-28T11:53:10.827Z,4.80
2018-07-28T11:55:41.434Z,4.87
2018-07-28T11:58:12.043Z,4.70
2018-07-28T12:00:43.198Z,4.87
2018-07-28T12:03:14.496Z,4.50
2018-07-28T12:05:44.934Z,4.97
2018-07-28T12:08:15.589Z,5.53
2018-07-28T12:10:46.134Z,4.80
2018-07-28T12:13:17.054Z,4.92
2018-07-28T12:15:47.574Z,5.05
2018-07-28T12:18:18.570Z,5.72
2018-07-28T12:20:49.216Z,5.85
2018-07-28T12:23:19.665Z,5.20
2018-07-28T12:25:50.221Z,4.78
2018-07-28T12:28:20.746Z,5.20
2018-07-28T12:30:51.362Z,5.10
2018-07-28T12:33:22.708Z,4.95
2018-07-28T12:35:53.168Z,5.67
2018-07-28T12:38:24.112Z,5.65
2018-07-28T12:40:54.678Z,5.60
2018-07-28T12:43:25.439Z,8.38
2018-07-28T12:45:55.908Z,5.75
2018-07-28T12:48:26.434Z,5.60
2018-07-28T12:50:58.518Z,5.83
2018-07-28T12:53:29.098Z,5.42
2018-07-28T12:55:59.701Z,5.75
2018-07-28T12:58:30.438Z,5.78
2018-07-28T13:01:00.908Z,6.12
2018-07-28T13:03:31.425Z,5.83
2018-07-28T13:06:01.989Z,5.50
2018-07-28T13:08:32.484Z,5.83
2018-07-28T13:11:03.508Z,5.15
2018-07-28T13:13:33.886Z,5.22
2018-07-28T13:16:04.420Z,5.42
2018-07-28T13:18:34.980Z,4.90
2018-07-28T13:21:05.815Z,5.90
2018-07-28T13:23:36.942Z,5.20
2018-07-28T13:26:08.442Z,5.67
2018-07-28T13:28:39.562Z,5.75
2018-07-28T13:31:11.065Z,5.05
2018-07-28T13:33:41.554Z,5.22
2018-07-28T13:36:12.208Z,5.25
2018-07-28T13:38:42.635Z,5.15
2018-07-28T13:41:13.262Z,6.12
2018-07-28T13:43:44.069Z,5.85
2018-07-28T13:46:15.734Z,6.25
2018-07-28T13:48:46.185Z,5.60
2018-07-28T13:51:16.718Z,6.00
2018-07-28T13:53:48.578Z,6.58
2018-07-28T13:56:19.284Z,6.17
2018-07-28T13:58:49.955Z,5.70
2018-07-28T14:01:20.437Z,6.55
2018-07-28T14:03:51.579Z,6.33
2018-07-28T14:06:23.109Z,6.25
2018-07-28T14:08:55.545Z,6.50
2018-07-28T14:11:26.915Z,6.28
2018-07-28T14:13:57.757Z,6.42
2018-07-28T14:16:29.241Z,5.80
2018-07-28T14:18:59.606Z,6.03
2018-07-28T14:21:30.053Z,5.42
2018-07-28T14:24:00.847Z,5.50
2018-07-28T14:26:31.471Z,5.80
2018-07-28T14:29:02.245Z,5.87
2018-07-28T14:31:33.365Z,5.50
2018-07-28T14:34:03.936Z,5.90
2018-07-28T14:36:34.705Z,5.58
2018-07-28T14:39:07.775Z,6.03
2018-07-28T14:41:38.583Z,5.58
2018-07-28T14:44:09.277Z,6.12
2018-07-28T14:46:39.871Z,6.20
2018-07-28T14:49:10.357Z,5.80
2018-07-28T14:51:41.197Z,5.95
2018-07-28T14:54:11.703Z,5.40
2018-07-28T14:56:43.065Z,5.60
2018-07-28T14:59:13.605Z,5.78
2018-07-28T15:01:44.367Z,5.40
2018-07-28T15:04:14.957Z,5.90
2018-07-28T15:06:45.377Z,5.67
2018-07-28T15:09:15.733Z,5.60
2018-07-28T15:11:46.588Z,5.50
2018-07-28T15:14:17.072Z,5.92
2018-07-28T15:16:47.836Z,5.42
2018-07-28T15:19:18.250Z,5.42
2018-07-28T15:21:48.775Z,5.10
2018-07-28T15:24:19.283Z,5.40
2018-07-28T15:26:49.693Z,5.30
2018-07-28T15:29:20.129Z,5.83
2018-07-28T15:31:50.569Z,4.87
2018-07-28T15:34:21.208Z,4.72
2018-07-28T15:36:51.850Z,5.03
2018-07-28T15:39:22.440Z,5.10
2018-07-28T15:41:53.597Z,5.30
2018-07-28T15:44:23.947Z,5.03
2018-07-28T15:46:54.429Z,5.45
2018-07-28T15:49:25.777Z,5.37
2018-07-28T15:51:56.637Z,4.60
2018-07-28T15:54:27.089Z,5.00
2018-07-28T15:56:57.808Z,4.80
2018-07-28T15:59:28.315Z,5.25
2018-07-28T16:01:58.917Z,5.00
2018-07-28T16:04:29.573Z,4.42
2018-07-28T16:07:00.817Z,4.95
2018-07-28T16:09:31.375Z,5.17
2018-07-28T16:12:02.714Z,5.05
2018-07-28T16:14:33.389Z,5.17
2018-07-28T16:17:04.068Z,4.70
2018-07-28T16:19:35.725Z,5.30
2018-07-28T16:22:06.189Z,5.05
2018-07-28T16:24:36.744Z,5.20
2018-07-28T16:27:07.533Z,5.35
2018-07-28T16:29:37.970Z,5.12
2018-07-28T16:32:13.101Z,5.60
2018-07-28T16:34:44.021Z,5.45
2018-07-28T16:37:14.497Z,5.15
2018-07-28T16:39:45.559Z,5.10
2018-07-28T16:42:16.138Z,5.35
2018-07-28T16:44:47.029Z,5.20
2018-07-28T16:47:17.879Z,5.00
2018-07-28T16:49:48.265Z,4.95
2018-07-28T16:52:19.044Z,4.70
2018-07-28T16:54:50.215Z,4.95
2018-07-28T16:57:21.009Z,4.90
2018-07-28T16:59:52.025Z,4.90
2018-07-28T17:02:22.451Z,4.47
2018-07-28T17:04:52.817Z,4.75
2018-07-28T17:14:12.787Z,4.47
2018-07-28T17:16:43.288Z,4.60
2018-07-28T17:19:13.624Z,4.47
2018-07-28T17:21:44.207Z,4.10
2018-07-28T17:24:14.712Z,4.75
2018-07-28T17:26:45.226Z,4.20
2018-07-28T17:29:15.747Z,4.60
2018-07-28T17:31:46.097Z,4.30
2018-07-28T17:34:16.631Z,4.45
2018-07-28T17:36:46.979Z,4.80
2018-07-28T17:39:26.630Z,4.37
2018-07-28T17:41:57.385Z,4.65
2018-07-28T17:44:27.759Z,4.75
2018-07-28T17:46:58.278Z,4.30
2018-07-28T17:49:28.692Z,4.53
2018-07-28T17:51:59.841Z,4.42
2018-07-28T17:54:30.877Z,4.40
2018-07-28T17:57:01.516Z,4.67
2018-07-28T17:59:32.311Z,4.83
2018-07-28T18:02:02.869Z,4.45
2018-07-28T18:04:33.286Z,4.90
2018-07-28T18:07:03.840Z,4.53
2018-07-28T18:09:34.563Z,4.50
2018-07-28T18:12:04.931Z,4.22
2018-07-28T18:14:35.455Z,4.80
2018-07-28T18:17:05.871Z,4.70
2018-07-28T18:19:36.307Z,5.03
2018-07-28T18:22:07.100Z,4.65
2018-07-28T18:24:37.945Z,4.70
2018-07-28T18:27:08.386Z,4.87
2018-07-28T18:29:38.948Z,4.47
2018-07-28T18:32:09.631Z,4.80
2018-07-28T18:34:40.396Z,4.45
2018-07-28T18:37:10.794Z,4.62
2018-07-28T18:39:41.179Z,4.25
2018-07-28T18:42:11.614Z,4.35
2018-07-28T18:44:42.056Z,4.72
2018-07-28T18:47:12.596Z,4.95
2018-07-28T18:49:43.332Z,4.33
2018-07-28T18:52:13.700Z,4.67
2018-07-28T18:54:44.074Z,5.00
2018-07-28T18:57:14.984Z,5.30
2018-07-28T18:59:45.351Z,5.40
2018-07-28T19:02:15.812Z,4.37
2018-07-28T19:04:46.471Z,4.85
2018-07-28T19:07:17.267Z,5.20
2018-07-28T19:09:50.884Z,5.10
2018-07-28T19:12:26.108Z,5.10
2018-07-28T19:14:56.500Z,4.70
2018-07-28T19:17:32.219Z,4.85
2018-07-28T19:20:03.033Z,5.03
2018-07-28T19:22:38.598Z,5.00
2018-07-28T19:25:09.228Z,4.83
2018-07-28T19:27:39.770Z,4.80
2018-07-28T19:30:10.141Z,4.80
2018-07-28T19:32:40.728Z,4.83
2018-07-28T19:35:11.399Z,4.67
2018-07-28T19:37:42.451Z,4.55
2018-07-28T19:40:12.904Z,5.10
2018-07-28T19:42:49.971Z,4.80
2018-07-28T19:45:20.869Z,4.92
2018-07-28T19:47:51.476Z,4.60
2018-07-28T19:50:21.880Z,5.05
2018-07-28T19:52:52.233Z,5.42
2018-07-28T19:55:22.933Z,5.20
2018-07-28T19:57:53.342Z,5.08
2018-07-28T20:00:23.696Z,5.15
2018-07-28T20:02:54.096Z,4.87
2018-07-28T20:05:24.901Z,5.65
2018-07-28T20:07:55.272Z,5.30
2018-07-28T20:10:25.665Z,4.65
2018-07-28T20:12:56.167Z,4.67
2018-07-28T20:15:26.820Z,4.85
2018-07-28T20:17:57.545Z,4.95
2018-07-28T20:20:28.207Z,4.90
2018-07-28T20:22:58.575Z,5.35
2018-07-28T20:25:29.019Z,4.90
2018-07-28T20:27:59.760Z,4.90
2018-07-28T20:30:30.449Z,4.78
2018-07-28T20:33:00.879Z,5.22
2018-07-28T20:35:31.250Z,4.97
2018-07-28T20:38:01.650Z,4.80
2018-07-28T20:40:32.032Z,5.22
2018-07-28T20:43:02.645Z,5.12
2018-07-28T20:45:33.049Z,4.70
2018-07-28T20:48:03.467Z,4.90
2018-07-28T20:50:34.159Z,5.00
2018-07-28T20:53:04.611Z,4.58
2018-07-28T20:55:35.367Z,4.85
2018-07-28T20:58:05.829Z,4.90
2018-07-28T21:00:37.491Z,5.20
2018-07-28T21:03:08.349Z,4.87
2018-07-28T21:05:38.787Z,5.10
2018-07-28T21:08:09.978Z,4.80
2018-07-28T21:10:40.401Z,4.90
2018-07-28T21:13:10.817Z,4.70
2018-07-28T21:15:45.130Z,4.40
2018-07-28T21:18:15.535Z,4.50
2018-07-28T21:20:46.258Z,4.62
2018-07-28T21:23:17.581Z,4.42
2018-07-28T21:25:48.773Z,4.33
2018-07-28T21:28:19.714Z,4.90
2018-07-28T21:30:50.759Z,4.65
2018-07-28T21:33:21.088Z,4.62
2018-07-28T21:35:52.747Z,4.87
2018-07-28T21:38:23.973Z,4.55
2018-07-28T21:40:54.415Z,5.08
2018-07-28T21:43:24.821Z,5.37
2018-07-28T21:45:55.232Z,5.20
2018-07-28T21:48:25.759Z,5.17
2018-07-28T21:50:56.603Z,5.08
2018-07-28T21:53:27.381Z,6.25
2018-07-28T21:55:57.827Z,5.28
2018-07-28T21:58:28.201Z,4.53
2018-07-28T22:11:47.029Z,4.65
2018-07-28T22:14:18.175Z,4.75
2018-07-28T22:16:48.660Z,5.12
2018-07-28T22:19:19.375Z,4.85
2018-07-28T22:21:50.535Z,4.80
2018-07-28T22:24:21.015Z,4.75
2018-07-28T22:26:51.763Z,5.12
2018-07-28T22:29:22.304Z,4.80
2018-07-28T22:31:52.773Z,4.70
2018-07-28T22:34:23.149Z,4.90
2018-07-28T22:36:53.800Z,5.00
2018-07-28T22:39:24.839Z,4.85
2018-07-28T22:41:55.321Z,4.47
2018-07-28T22:44:25.749Z,4.60
2018-07-28T22:46:56.852Z,4.45
2018-07-28T22:49:27.309Z,4.62
2018-07-28T22:51:57.967Z,4.28
2018-07-28T22:54:28.365Z,4.53
2018-07-28T22:56:58.779Z,4.47
2018-07-28T22:59:29.287Z,4.95
2018-07-28T23:01:59.677Z,4.28
2018-07-28T23:04:30.127Z,3.95
2018-07-28T23:07:00.515Z,4.28
2018-07-28T23:09:31.221Z,4.97
2018-07-28T23:12:01.599Z,5.33
2018-07-28T23:14:32.136Z,5.10
2018-07-28T23:17:02.051Z,4.67
2018-07-28T23:19:34.108Z,5.25
2018-07-28T23:22:04.621Z,5.53
2018-07-28T23:24:35.467Z,4.87
2018-07-28T23:27:06.294Z,5.67
2018-07-28T23:29:36.253Z,5.57
2018-07-28T23:32:07.418Z,5.40
2018-07-28T23:34:37.174Z,5.00
2018-07-28T23:37:07.844Z,5.17
2018-07-28T23:39:38.297Z,5.22
2018-07-28T23:42:08.716Z,4.80
2018-07-28T23:44:41.080Z,4.60
2018-07-28T23:47:11.436Z,5.33
2018-07-28T23:49:42.383Z,5.20
2018-07-28T23:52:13.066Z,4.75
2018-07-28T23:54:43.469Z,4.92
2018-07-28T23:57:14.735Z,5.35
2018-07-28T23:59:45.150Z,5.00
